Time;durP1;ratioP1;P1;durP2;ratioP2;P2;SDS_P1;SDS_P2;PMS_P1;PMS_P2;Temp;Humidity;BMP_temperature;BMP_pressure;BME280_temperature;BME280_humidity;BME280_pressure;Samples;Min_cycle;Max_cycle;Signal;HPM_P1;HPM_P2
2022/11/15 00:01:07;;;;;;;47.40;29.33;;;;;;;9.38;70.95;95207.31;5116102;28;20632;-82
2022/11/15 00:03:34;;;;;;;44.30;29.37;;;;;;;9.33;71.18;95200.94;5114013;28;20193;-79
2022/11/15 00:06:03;;;;;;;42.97;29.00;;;;;;;9.45;71.12;95217.84;5122997;28;20185;-81
2022/11/15 00:08:31;;;;;;;45.00;28.17;;;;;;;9.44;71.13;95219.59;5121493;28;20212;-82
2022/11/15 00:10:59;;;;;;;42.47;27.87;;;;;;;9.43;71.05;95214.63;5116371;28;20691;-82
2022/11/15 00:13:26;;;;;;;43.73;27.73;;;;;;;9.15;71.11;95175.06;5116675;28;20180;-82
2022/11/15 00:15:53;;;;;;;41.07;27.27;;;;;;;9.41;71.02;95216.47;5116254;28;20193;-82
2022/11/15 00:18:21;;;;;;;40.13;27.90;;;;;;;9.40;71.06;95213.09;5115295;28;20192;-80
2022/11/15 00:20:48;;;;;;;42.73;27.90;;;;;;;9.35;70.94;95199.06;5117497;28;20193;-81
2022/11/15 00:23:16;;;;;;;43.57;27.43;;;;;;;9.34;71.05;95190.59;5115200;28;20238;-83
2022/11/15 00:25:43;;;;;;;44.60;28.13;;;;;;;9.37;71.03;95203.13;5114468;28;20193;-81
2022/11/15 00:28:10;;;;;;;40.83;26.63;;;;;;;9.31;71.18;95193.38;5114672;28;20221;-81
2022/11/15 00:30:37;;;;;;;40.60;26.60;;;;;;;9.30;71.06;95192.56;5113373;28;20185;-79
2022/11/15 00:33:04;;;;;;;47.70;28.87;;;;;;;9.31;71.11;95188.28;5113791;28;20205;-80
2022/11/15 00:35:34;;;;;;;43.27;27.87;;;;;;;9.29;71.09;95193.50;5113465;28;20197;-80
2022/11/15 00:38:01;;;;;;;43.17;27.50;;;;;;;9.32;70.86;95197.56;5113952;28;20819;-80
2022/11/15 00:40:28;;;;;;;42.20;28.33;;;;;;;9.30;71.05;95195.13;5114130;28;20177;-79
2022/11/15 00:42:56;;;;;;;40.00;26.33;;;;;;;9.29;71.04;95188.41;5114064;28;20280;-85
2022/11/15 00:45:23;;;;;;;40.20;26.93;;;;;;;9.24;70.96;95185.41;5115235;28;20232;-82
2022/11/15 00:47:50;;;;;;;37.43;26.03;;;;;;;9.28;70.92;95193.59;5118378;28;20205;-82
2022/11/15 00:50:18;;;;;;;40.47;26.33;;;;;;;9.27;70.88;95189.44;5120946;28;20181;-80
2022/11/15 00:52:46;;;;;;;42.27;26.93;;;;;;;9.27;70.83;95192.00;5122453;28;20185;-80
2022/11/15 00:55:15;;;;;;;42.07;26.03;;;;;;;9.01;70.94;95150.59;5125826;28;20192;-79
2022/11/15 00:57:42;;;;;;;40.13;25.27;;;;;;;9.24;70.86;95184.56;5124502;28;20215;-81
2022/11/15 01:00:10;;;;;;;37.53;25.33;;;;;;;9.22;71.13;95179.59;5120985;28;20562;-81
2022/11/15 01:02:37;;;;;;;39.73;25.60;;;;;;;9.22;70.77;95183.88;5120613;28;20189;-84
2022/11/15 01:05:05;;;;;;;43.77;26.20;;;;;;;9.21;70.91;95180.53;5117468;28;20215;-88
2022/11/15 01:07:32;;;;;;;39.90;26.00;;;;;;;9.21;70.86;95182.28;5114485;28;20181;-80
2022/11/15 01:10:00;;;;;;;37.60;24.13;;;;;;;9.21;70.86;95177.16;5113701;28;20197;-80
2022/11/15 01:12:27;;;;;;;35.93;23.33;;;;;;;9.14;70.82;95170.91;5112203;28;20185;-84
2022/11/15 01:14:54;;;;;;;36.80;24.90;;;;;;;9.18;70.91;95180.75;5114557;28;20224;-81
2022/11/15 01:17:23;;;;;;;44.70;26.73;;;;;;;9.18;70.92;95182.50;5116602;28;20197;-83
2022/11/15 01:19:50;;;;;;;39.63;26.00;;;;;;;8.93;70.87;95140.97;5118983;28;20201;-82
2022/11/15 01:22:19;;;;;;;40.07;25.63;;;;;;;9.01;70.89;95158.25;5117892;28;20181;-82
2022/11/15 01:24:48;;;;;;;36.40;23.53;;;;;;;9.16;70.94;95181.81;5116444;28;20200;-82
2022/11/15 01:27:17;;;;;;;37.70;23.40;;;;;;;9.15;70.91;95180.16;5117687;28;20181;-84
2022/11/15 01:29:44;;;;;;;36.80;24.20;;;;;;;9.14;70.93;95179.34;5117654;28;20208;-81
2022/11/15 01:32:11;;;;;;;35.93;24.00;;;;;;;9.13;70.88;95175.19;5118191;28;20216;-80
2022/11/15 01:34:38;;;;;;;39.27;24.30;;;;;;;8.73;70.96;95113.66;5117280;28;20189;-81
2022/11/15 01:37:06;;;;;;;35.23;23.27;;;;;;;9.12;70.92;95172.75;5118721;28;20193;-82
2022/11/15 01:39:34;;;;;;;35.17;23.60;;;;;;;8.95;70.85;95145.97;5118397;28;20196;-80
2022/11/15 01:42:03;;;;;;;34.27;23.53;;;;;;;9.10;71.03;95172.06;5117888;28;20211;-82
2022/11/15 01:44:40;;;;;;;39.07;22.53;;;;;;;9.02;70.98;95154.78;5116609;28;20200;-86
2022/11/15 01:47:11;;;;;;;36.33;23.53;;;;;;;9.09;70.85;95166.16;5116608;28;20185;-82
2022/11/15 01:49:50;;;;;;;34.80;22.13;;;;;;;9.09;70.98;95165.34;5114706;28;20228;-79
2022/11/15 01:52:21;;;;;;;33.57;22.37;;;;;;;9.08;70.90;95169.63;5115692;28;20193;-81
2022/11/15 01:54:50;;;;;;;37.07;23.07;;;;;;;9.09;71.07;95165.34;5114547;28;20262;-78
2022/11/15 01:57:18;;;;;;;31.63;22.80;;;;;;;9.08;70.94;95166.28;5095549;28;20198;-86
2022/11/15 01:59:47;;;;;;;33.63;22.20;;;;;;;8.95;70.96;95151.09;5115185;28;20199;-79
2022/11/15 02:02:16;;;;;;;32.90;21.43;;;;;;;9.07;71.01;95159.53;5128436;28;20185;-79
2022/11/15 02:04:49;;;;;;;34.47;22.37;;;;;;;8.95;70.96;95145.97;5121858;28;20200;-83
2022/11/15 02:07:18;;;;;;;30.03;20.50;;;;;;;9.04;70.90;95161.41;5120827;28;20196;-78
2022/11/15 02:09:46;;;;;;;31.30;20.90;;;;;;;8.94;70.85;95150.28;5120223;28;20220;-79
2022/11/15 02:12:16;;;;;;;31.77;21.23;;;;;;;8.93;70.75;95147.81;5122428;28;20192;-79
2022/11/15 02:14:48;;;;;;;37.00;21.17;;;;;;;9.03;70.86;95164.06;5121142;28;20185;-81
2022/11/15 02:17:34;;;;;;;35.90;21.40;;;;;;;9.02;70.81;95164.97;5120255;28;20177;-82
2022/11/15 02:20:29;;;;;;;36.27;21.50;;;;;;;8.99;71.11;95157.56;5112978;28;20200;-84
2022/11/15 02:23:31;;;;;;;31.07;19.40;;;;;;;8.75;70.70;95116.88;5112748;28;20196;-86
2022/11/15 02:26:19;;;;;;;29.50;19.87;;;;;;;8.92;71.04;95149.56;5049278;28;21069;-85
2022/11/15 02:28:54;;;;;;;32.87;20.90;;;;;;;8.98;70.90;95155.94;5049258;28;20228;-88
2022/11/15 02:31:29;;;;;;;29.73;20.40;;;;;;;9.08;71.07;95159.44;5050025;28;20201;-84
2022/11/15 02:34:05;;;;;;;33.77;19.87;;;;;;;9.16;71.21;95158.84;5052572;28;20202;-82
2022/11/15 02:36:41;;;;;;;26.90;18.27;;;;;;;9.19;72.18;95146.63;5035169;28;20597;-84
2022/11/15 02:39:16;;;;;;;29.53;19.60;;;;;;;9.25;72.73;95160.69;5047127;28;20329;-80
2022/11/15 02:41:49;;;;;;;28.67;19.10;;;;;;;9.24;73.60;95154.78;5058907;28;20183;-86
2022/11/15 02:44:21;;;;;;;30.57;18.83;;;;;;;8.92;74.05;95097.75;5051676;28;20191;-85
2022/11/15 02:49:48;;;;;;;25.97;18.33;;;;;;;9.15;75.26;95124.03;5049078;28;20222;-87
2022/11/15 02:52:17;;;;;;;32.90;19.90;;;;;;;9.33;75.49;95157.56;5050679;28;20218;-87
2022/11/15 02:54:53;;;;;;;28.53;19.70;;;;;;;9.30;75.61;95148.38;5053046;28;20249;-88
2022/11/15 02:57:30;;;;;;;28.37;20.00;;;;;;;9.28;75.71;95145.13;5051943;28;20205;-80
2022/11/15 03:00:07;;;;;;;38.30;20.20;;;;;;;9.32;76.00;95154.16;5051034;28;20191;-84
2022/11/15 03:03:08;;;;;;;35.30;20.83;;;;;;;9.37;75.83;95164.84;5074362;28;20199;-89
2022/11/15 03:05:42;;;;;;;30.90;19.53;;;;;;;9.23;75.93;95142.94;5032512;28;20228;-81
2022/11/15 03:08:18;;;;;;;29.23;19.07;;;;;;;9.40;76.02;95169.69;5034027;28;20240;-87
2022/11/15 03:10:55;;;;;;;27.33;18.63;;;;;;;9.41;75.79;95160.28;5031156;28;20198;-80
2022/11/15 03:13:27;;;;;;;29.23;20.03;;;;;;;9.43;75.68;95161.81;5040109;28;20222;-88
2022/11/15 03:16:03;;;;;;;29.00;19.00;;;;;;;9.33;75.36;95135.41;5044246;28;20198;-81
2022/11/15 03:18:37;;;;;;;29.30;19.07;;;;;;;9.46;75.19;95151.38;5046126;28;20197;-81
2022/11/15 03:21:07;;;;;;;28.03;19.17;;;;;;;9.44;74.91;95143.00;5046398;28;20195;-83
2022/11/15 03:23:37;;;;;;;26.10;18.97;;;;;;;9.48;74.51;95146.94;5039732;28;20195;-79
2022/11/15 03:26:08;;;;;;;30.47;20.53;;;;;;;9.52;74.51;95139.88;5032903;28;20192;-80
2022/11/15 03:28:39;;;;;;;32.70;19.80;;;;;;;9.49;74.34;95137.53;5034765;28;20211;-81
2022/11/15 03:33:54;;;;;;;31.43;19.43;;;;;;;9.56;74.02;95141.25;5038239;28;20322;-89
2022/11/15 03:36:24;;;;;;;29.70;19.00;;;;;;;9.56;73.90;95133.59;5035940;28;20206;-83
2022/11/15 03:38:55;;;;;;;30.93;19.27;;;;;;;9.63;73.71;95142.41;5033543;28;20210;-84
2022/11/15 03:41:26;;;;;;;32.43;21.13;;;;;;;9.60;73.53;95131.59;5036122;28;20196;-82
2022/11/15 03:43:58;;;;;;;31.03;20.93;;;;;;;9.66;73.38;95133.66;5107785;28;20679;-83
2022/11/15 03:46:29;;;;;;;32.10;20.27;;;;;;;9.68;73.16;95129.25;5115787;28;20220;-83
2022/11/15 03:49:10;;;;;;;30.57;20.17;;;;;;;9.70;73.26;95135.84;5117644;28;20297;-81
2022/11/15 03:51:42;;;;;;;32.83;21.57;;;;;;;9.72;73.16;95134.00;5121329;28;20265;-82
2022/11/15 03:54:09;;;;;;;31.70;21.07;;;;;;;9.74;72.96;95126.22;5111975;28;20177;-80
2022/11/15 03:56:36;;;;;;;31.13;20.90;;;;;;;9.71;72.90;95121.34;5132241;28;20177;-81
2022/11/15 03:59:03;;;;;;;33.13;20.43;;;;;;;9.65;72.84;95103.97;5129551;28;20193;-81
2022/11/15 04:01:29;;;;;;;31.13;19.73;;;;;;;9.79;72.72;95124.09;5124707;28;20267;-81
2022/11/15 04:03:58;;;;;;;36.70;22.80;;;;;;;9.82;72.66;95126.41;5118233;28;20196;-81
2022/11/15 04:06:24;;;;;;;30.57;20.93;;;;;;;9.83;72.57;95122.13;5123658;28;20270;-82
2022/11/15 04:08:51;;;;;;;31.07;20.53;;;;;;;9.77;72.60;95111.47;5124807;28;20201;-80
2022/11/15 04:11:18;;;;;;;31.30;21.00;;;;;;;9.67;72.79;95094.41;5117073;28;20189;-86
2022/11/15 04:13:45;;;;;;;31.90;22.27;;;;;;;9.84;72.43;95116.88;5118270;28;20666;-82
2022/11/15 04:16:12;;;;;;;34.27;22.23;;;;;;;9.87;72.19;95120.94;5125202;28;20189;-84
2022/11/15 04:18:39;;;;;;;38.67;23.43;;;;;;;9.83;72.19;95106.78;5124296;28;20193;-82
2022/11/15 04:24:13;;;;;;;37.57;22.77;;;;;;;9.90;72.38;95124.06;5051719;28;20257;-84
2022/11/15 04:26:40;;;;;;;32.47;21.30;;;;;;;9.91;72.31;95112.09;5031908;28;20600;-89
2022/11/15 04:31:51;;;;;;;37.37;22.57;;;;;;;9.85;72.19;95104.94;5032894;28;20187;-81
2022/11/15 04:34:20;;;;;;;43.20;23.23;;;;;;;9.85;72.56;95098.09;5035683;28;20334;-82
2022/11/15 04:39:33;;;;;;;42.50;24.30;;;;;;;9.95;72.45;95116.03;5055200;28;20182;-84
2022/11/15 04:42:00;;;;;;;41.97;24.70;;;;;;;9.86;72.79;95101.44;5057056;28;20199;-88
2022/11/15 04:44:27;;;;;;;43.13;23.07;;;;;;;9.96;72.62;95115.91;5057023;28;20306;-81
2022/11/15 04:46:55;;;;;;;42.23;24.47;;;;;;;9.88;72.54;95104.66;5050247;28;20234;-80
2022/11/15 04:49:22;;;;;;;46.37;25.07;;;;;;;9.85;72.50;95102.38;5052533;28;20211;-87
2022/11/15 04:51:51;;;;;;;46.23;26.10;;;;;;;9.94;72.43;95106.75;5056471;28;20611;-83
2022/11/15 04:54:18;;;;;;;46.80;25.50;;;;;;;10.00;72.54;95116.47;5056550;28;20206;-85
2022/11/15 04:56:46;;;;;;;47.73;26.73;;;;;;;10.01;72.54;95121.44;5054551;28;20179;-84
2022/11/15 04:59:13;;;;;;;47.27;26.30;;;;;;;10.01;72.55;95126.53;5052551;28;20201;-88
2022/11/15 05:01:40;;;;;;;50.77;26.97;;;;;;;10.00;72.52;95112.16;5112522;28;20200;-90
2022/11/15 05:04:20;;;;;;;51.27;26.93;;;;;;;10.01;72.46;95125.75;5114342;28;20196;-88
2022/11/15 05:06:52;;;;;;;53.27;26.83;;;;;;;9.83;72.50;95092.28;5114034;28;20193;-87
2022/11/15 05:09:19;;;;;;;66.20;29.07;;;;;;;9.74;72.43;95068.28;5115180;28;20219;-84
2022/11/15 05:11:49;;;;;;;58.33;26.93;;;;;;;10.04;72.52;95125.50;5116954;28;20181;-85
2022/11/15 05:14:16;;;;;;;60.60;27.50;;;;;;;10.04;72.92;95125.50;5115505;28;20698;-83
2022/11/15 05:16:43;;;;;;;63.53;26.70;;;;;;;10.04;72.59;95126.31;5114891;28;20198;-87
2022/11/15 05:19:12;;;;;;;61.90;29.40;;;;;;;10.05;72.75;95120.25;5116989;28;20193;-86
2022/11/15 05:21:39;;;;;;;53.90;27.83;;;;;;;10.05;72.65;95116.91;5118484;28;20428;-84
2022/11/15 05:24:25;;;;;;;62.37;29.90;;;;;;;10.06;72.59;95121.09;5119488;28;20181;-84
2022/11/15 05:26:52;;;;;;;62.67;31.33;;;;;;;10.05;72.56;95111.78;5121837;28;20230;-84
2022/11/15 05:29:19;;;;;;;69.43;31.83;;;;;;;10.01;72.68;95102.75;5122804;28;20284;-83
2022/11/15 05:31:46;;;;;;;70.07;30.83;;;;;;;10.06;72.83;95118.53;5121811;28;20211;-85
2022/11/15 05:34:13;;;;;;;56.93;28.43;;;;;;;10.07;72.49;95104.81;5118099;28;20193;-85
2022/11/15 05:36:44;;;;;;;62.57;31.67;;;;;;;9.98;72.71;95093.59;5116802;28;20664;-84
2022/11/15 05:39:12;;;;;;;62.03;30.07;;;;;;;9.78;72.71;95062.00;5116360;28;20217;-85
2022/11/15 05:41:43;;;;;;;62.13;30.47;;;;;;;10.10;72.65;95107.09;5118322;28;20192;-82
2022/11/15 05:44:12;;;;;;;69.13;32.63;;;;;;;10.11;72.85;95111.31;5116221;28;20193;-84
2022/11/15 05:46:41;;;;;;;68.20;33.20;;;;;;;10.13;72.87;95117.09;5113773;28;20242;-83
2022/11/15 05:49:13;;;;;;;63.23;32.47;;;;;;;10.09;72.71;95099.56;5124583;28;20189;-83
2022/11/15 05:51:41;;;;;;;71.63;30.40;;;;;;;10.09;72.69;95099.56;5123773;28;20185;-85
2022/11/15 05:54:08;;;;;;;67.43;31.67;;;;;;;10.07;72.71;95102.28;5116746;28;20668;-81
2022/11/15 05:56:36;;;;;;;62.63;29.73;;;;;;;10.20;72.71;95115.66;5115646;28;20201;-87
2022/11/15 05:59:04;;;;;;;61.70;30.13;;;;;;;10.22;72.71;95123.19;5116789;28;20188;-82
2022/11/15 06:01:31;;;;;;;55.83;28.60;;;;;;;10.20;72.63;95118.22;5116293;28;20288;-81
2022/11/15 06:03:57;;;;;;;50.27;27.47;;;;;;;10.27;72.46;95114.25;5117494;28;20219;-82
2022/11/15 06:06:24;;;;;;;57.10;29.43;;;;;;;10.28;72.70;95117.63;5123300;28;20184;-80
2022/11/15 06:08:51;;;;;;;59.10;28.80;;;;;;;10.31;72.84;95132.69;5125116;28;20196;-79
2022/11/15 06:11:18;;;;;;;56.00;28.83;;;;;;;10.18;72.76;95107.31;5123057;28;20564;-82
2022/11/15 06:13:46;;;;;;;61.60;29.23;;;;;;;10.22;72.85;95112.97;5124776;28;20188;-79
2022/11/15 06:16:13;;;;;;;59.73;30.90;;;;;;;10.34;72.80;95119.69;5128064;28;20200;-80
2022/11/15 06:18:40;;;;;;;60.40;29.27;;;;;;;10.14;72.86;95082.13;5128577;28;20195;-80
2022/11/15 06:21:07;;;;;;;57.63;29.70;;;;;;;10.32;72.81;95113.06;5130405;28;20189;-83
2022/11/15 06:23:35;;;;;;;54.70;28.03;;;;;;;10.40;72.74;95124.28;5122539;28;20200;-84
2022/11/15 06:26:04;;;;;;;54.93;30.00;;;;;;;10.45;72.94;95123.94;5122994;28;20186;-79
2022/11/15 06:28:31;;;;;;;51.30;27.33;;;;;;;10.46;72.59;95123.78;5127094;28;20197;-81
2022/11/15 06:31:03;;;;;;;53.47;27.97;;;;;;;10.48;72.62;95116.78;5119823;28;20215;-83
2022/11/15 06:33:30;;;;;;;49.70;27.47;;;;;;;10.48;72.46;95111.69;5130468;28;20208;-80
2022/11/15 06:36:01;;;;;;;46.97;26.17;;;;;;;10.45;72.50;95100.91;5129479;28;20191;-80
2022/11/15 06:38:28;;;;;;;52.93;28.07;;;;;;;10.56;72.64;95118.72;5130441;28;20189;-80
2022/11/15 06:40:55;;;;;;;55.77;27.60;;;;;;;10.54;72.34;95107.81;5130211;28;20185;-83
2022/11/15 06:43:22;;;;;;;55.47;28.27;;;;;;;10.62;72.40;95115.69;5132138;28;20188;-83
2022/11/15 06:45:49;;;;;;;51.63;26.97;;;;;;;10.66;72.53;95119.56;5135726;28;20209;-85
2022/11/15 06:48:17;;;;;;;53.37;27.77;;;;;;;10.69;72.27;95110.84;5127122;28;20189;-84
2022/11/15 06:50:44;;;;;;;46.33;20.80;;;;;;;11.20;100.00;95108.19;5123503;28;20268;-82
2022/11/15 06:53:10;;;;;;;57.47;23.53;;;;;;;11.96;100.00;95102.47;5131403;28;20185;-81
2022/11/15 06:55:37;;;;;;;51.03;26.63;;;;;;;12.78;100.00;95110.44;5131291;28;20189;-85
2022/11/15 06:58:04;;;;;;;42.53;24.53;;;;;;;13.30;100.00;95087.63;5132308;28;20187;-84
2022/11/15 07:00:31;;;;;;;41.67;22.43;;;;;;;14.12;100.00;95116.66;5133798;28;20372;-86
2022/11/15 07:03:01;;;;;;;34.27;21.13;;;;;;;14.64;100.00;95098.72;5130790;28;20187;-83
2022/11/15 07:05:29;;;;;;;39.57;20.70;;;;;;;15.15;97.71;95099.56;5130732;28;20280;-80
2022/11/15 07:08:02;;;;;;;46.10;26.43;;;;;;;15.50;95.51;95105.47;5130144;28;20203;-89
2022/11/15 07:10:29;;;;;;;46.97;27.77;;;;;;;15.53;92.99;95105.97;5128208;28;20204;-81
2022/11/15 07:12:57;;;;;;;54.67;27.67;;;;;;;15.44;90.23;95104.34;5126047;28;20189;-80
2022/11/15 07:15:26;;;;;;;64.80;30.83;;;;;;;15.28;87.47;95106.84;5101389;28;20197;-84
2022/11/15 07:17:53;;;;;;;54.73;30.37;;;;;;;15.10;86.00;95106.16;5096366;28;20213;-86
2022/11/15 07:20:20;;;;;;;56.53;31.83;;;;;;;14.89;84.30;95101.41;5104366;28;20193;-78
2022/11/15 07:22:48;;;;;;;59.20;31.87;;;;;;;14.75;82.62;95105.34;5111718;28;20189;-83
2022/11/15 07:25:15;;;;;;;67.93;35.63;;;;;;;14.59;81.52;95121.50;5104943;28;20625;-84
2022/11/15 07:27:42;;;;;;;64.67;34.50;;;;;;;14.42;80.23;95109.47;5104818;28;20205;-80
2022/11/15 07:30:09;;;;;;;74.17;36.23;;;;;;;14.27;79.29;95119.50;5101237;28;20608;-82
2022/11/15 07:32:36;;;;;;;66.97;35.97;;;;;;;14.13;78.62;95123.41;5104906;28;20602;-82
2022/11/15 07:35:03;;;;;;;68.37;36.43;;;;;;;13.99;77.81;95119.63;5100233;28;20200;-83
2022/11/15 07:37:30;;;;;;;61.83;33.93;;;;;;;13.87;77.30;95118.22;5109518;28;20193;-80
2022/11/15 07:39:58;;;;;;;62.30;35.67;;;;;;;13.78;76.86;95119.09;5103073;28;20204;-80
2022/11/15 07:45:09;;;;;;;73.70;39.67;;;;;;;13.56;75.99;95112.63;5113486;28;20595;-81
2022/11/15 07:47:36;;;;;;;70.63;38.00;;;;;;;13.48;75.67;95112.53;5109078;28;20204;-82
2022/11/15 07:50:03;;;;;;;74.33;38.77;;;;;;;13.41;75.43;95114.06;5098876;28;20228;-85
2022/11/15 07:52:30;;;;;;;71.13;39.37;;;;;;;13.33;75.20;95112.22;5099331;28;20193;-86
2022/11/15 07:54:58;;;;;;;73.23;41.47;;;;;;;13.27;74.81;95111.03;5107386;28;20177;-85
2022/11/15 07:57:26;;;;;;;80.40;39.37;;;;;;;13.20;74.60;95109.94;5101593;28;20188;-85
2022/11/15 07:59:52;;;;;;;75.93;40.83;;;;;;;13.12;74.45;95102.16;5102363;28;20203;-85
2022/11/15 08:02:22;;;;;;;78.63;40.67;;;;;;;12.94;74.22;95078.19;5104873;28;20189;-85
2022/11/15 08:04:49;;;;;;;78.90;40.77;;;;;;;13.10;74.14;95111.78;5096582;28;20553;-80
2022/11/15 08:07:15;;;;;;;76.60;40.80;;;;;;;13.08;73.78;95113.66;5099609;28;20185;-81
2022/11/15 08:09:42;;;;;;;72.70;39.90;;;;;;;13.06;73.60;95107.88;5103275;28;20188;-84
2022/11/15 08:12:11;;;;;;;81.00;40.83;;;;;;;13.04;73.42;95104.66;5106924;28;20200;-92
2022/11/15 08:14:38;;;;;;;86.47;43.00;;;;;;;12.98;73.23;95097.50;5093004;28;20189;-83
2022/11/15 08:17:05;;;;;;;81.43;42.13;;;;;;;12.99;73.13;95102.47;5096588;28;20197;-80
2022/11/15 08:19:31;;;;;;;78.03;41.33;;;;;;;12.98;72.86;95100.06;5101960;28;20189;-77
2022/11/15 08:21:58;;;;;;;84.23;42.17;;;;;;;12.96;72.89;95105.34;5099820;28;20201;-77
2022/11/15 08:24:25;;;;;;;87.27;44.40;;;;;;;12.95;72.45;95096.03;5106149;28;20187;-81
2022/11/15 08:26:52;;;;;;;80.30;42.47;;;;;;;12.96;72.38;95101.97;5100371;28;20185;-83
2022/11/15 08:29:20;;;;;;;80.47;42.17;;;;;;;12.98;72.07;95100.06;5099932;28;20181;-81
2022/11/15 08:31:47;;;;;;;79.47;41.93;;;;;;;12.97;72.13;95099.25;5100377;28;20454;-81
2022/11/15 08:34:14;;;;;;;84.30;42.57;;;;;;;12.98;71.84;95095.75;5103930;28;20244;-84
2022/11/15 08:36:41;;;;;;;84.47;42.60;;;;;;;12.96;71.74;95095.09;5098466;28;20815;-84
2022/11/15 08:39:10;;;;;;;88.57;43.50;;;;;;;12.95;71.56;95087.50;5101970;28;20194;-84
2022/11/15 08:41:38;;;;;;;80.43;42.53;;;;;;;13.02;71.28;95091.13;5101259;28;20186;-79
2022/11/15 08:44:05;;;;;;;80.97;43.03;;;;;;;13.04;71.24;95086.69;5103038;28;20189;-84
2022/11/15 08:46:33;;;;;;;83.63;44.60;;;;;;;13.06;70.89;95089.91;5103045;28;20228;-83
2022/11/15 08:49:00;;;;;;;87.97;43.90;;;;;;;13.04;70.81;95074.66;5099818;28;20218;-83
2022/11/15 08:51:27;;;;;;;83.27;44.50;;;;;;;13.16;70.71;95089.84;5097102;28;20201;-80
2022/11/15 08:53:53;;;;;;;92.33;45.50;;;;;;;13.20;70.33;95086.84;5099271;28;20548;-83
2022/11/15 08:56:20;;;;;;;85.87;46.40;;;;;;;13.16;70.23;95070.09;5100725;28;20204;-80
2022/11/15 08:58:47;;;;;;;90.50;46.13;;;;;;;13.27;70.13;95077.66;5101108;28;20184;-83
2022/11/15 09:01:19;;;;;;;84.00;44.10;;;;;;;13.33;69.82;95075.44;5122573;28;20246;-80
2022/11/15 09:03:48;;;;;;;84.03;46.57;;;;;;;13.32;69.73;95064.38;5114105;28;20211;-78
2022/11/15 09:06:15;;;;;;;84.07;48.17;;;;;;;13.39;69.68;95070.56;5117757;28;20609;-80
2022/11/15 09:08:42;;;;;;;83.73;45.63;;;;;;;13.43;69.41;95064.16;5115185;28;20218;-82
2022/11/15 09:11:10;;;;;;;86.17;46.73;;;;;;;13.47;69.29;95059.53;5114813;28;20213;-79
2022/11/15 09:13:38;;;;;;;84.37;47.50;;;;;;;13.50;69.15;95057.47;5113085;28;20196;-81
2022/11/15 09:16:05;;;;;;;86.17;45.60;;;;;;;13.55;69.00;95060.41;5111491;28;20200;-82
2022/11/15 09:18:33;;;;;;;85.27;45.50;;;;;;;13.53;68.73;95046.91;5114573;28;20192;-77
2022/11/15 09:21:02;;;;;;;83.20;45.40;;;;;;;13.64;68.66;95048.44;5112583;28;20239;-79
2022/11/15 09:23:29;;;;;;;84.57;45.87;;;;;;;13.69;68.63;95053.97;5105139;28;20255;-81
2022/11/15 09:26:00;;;;;;;81.87;45.53;;;;;;;13.73;68.31;95037.28;5110668;28;20231;-82
2022/11/15 09:28:27;;;;;;;89.03;46.07;;;;;;;13.73;68.27;95036.47;5104317;28;20185;-78
2022/11/15 09:30:58;;;;;;;76.83;44.60;;;;;;;13.84;68.10;95035.44;5114397;28;20399;-79
2022/11/15 09:33:25;;;;;;;86.83;48.20;;;;;;;13.88;67.92;95026.47;5105937;28;20280;-78
2022/11/15 09:35:52;;;;;;;89.23;45.20;;;;;;;13.95;67.77;95030.88;5110455;28;20605;-79
2022/11/15 09:38:21;;;;;;;80.03;44.90;;;;;;;14.00;67.48;95028.66;5116352;28;20193;-80
2022/11/15 09:40:52;;;;;;;80.80;46.03;;;;;;;14.06;67.47;95025.47;5106160;28;20185;-81
2022/11/15 09:43:32;;;;;;;84.77;48.17;;;;;;;14.12;67.23;95023.25;5102364;28;20597;-79
2022/11/15 09:46:10;;;;;;;84.57;47.13;;;;;;;14.17;66.96;95016.72;5102777;28;20282;-82
2022/11/15 09:48:52;;;;;;;81.43;46.33;;;;;;;14.29;66.80;95017.25;5100647;28;20197;-81
2022/11/15 09:51:26;;;;;;;77.33;45.77;;;;;;;14.33;66.59;95003.09;5105014;28;20299;-80
2022/11/15 09:54:01;;;;;;;77.17;44.93;;;;;;;14.49;66.18;95012.72;5102675;28;20193;-78
2022/11/15 09:56:31;;;;;;;83.30;45.87;;;;;;;14.42;66.24;94978.22;5102537;28;20656;-80
2022/11/15 09:59:09;;;;;;;79.43;46.70;;;;;;;14.71;65.86;95001.06;5101370;28;20547;-87
2022/11/15 10:01:45;;;;;;;76.67;47.07;;;;;;;14.75;65.45;94987.72;5099821;28;20206;-78
2022/11/15 10:04:13;;;;;;;74.47;46.00;;;;;;;14.83;65.31;94981.00;5103209;28;20214;-83
2022/11/15 10:06:44;;;;;;;77.87;45.67;;;;;;;14.98;65.01;94989.72;5102275;28;20272;-82
2022/11/15 10:09:18;;;;;;;71.77;43.17;;;;;;;14.95;64.73;94959.16;5100600;28;20188;-80
2022/11/15 10:11:45;;;;;;;79.20;45.33;;;;;;;15.13;64.43;94977.06;5098227;28;20204;-83
2022/11/15 10:14:16;;;;;;;76.67;45.23;;;;;;;15.20;64.27;94978.03;5103664;28;20190;-81
2022/11/15 10:17:20;;;;;;;80.13;47.87;;;;;;;15.22;64.12;94979.47;5103276;28;20200;-80
2022/11/15 10:19:55;;;;;;;74.23;44.47;;;;;;;15.31;63.93;94983.66;5107748;28;20188;-82
2022/11/15 10:22:28;;;;;;;74.07;44.77;;;;;;;15.36;63.78;94975.47;5104945;28;20191;-81
2022/11/15 10:25:14;;;;;;;74.33;45.03;;;;;;;15.41;63.66;94972.41;5102797;28;20299;-82
2022/11/15 10:27:43;;;;;;;73.20;45.40;;;;;;;15.43;63.58;94967.91;5100049;28;20185;-88
2022/11/15 10:30:14;;;;;;;83.23;48.07;;;;;;;15.45;63.30;94953.88;5108393;28;20185;-82
2022/11/15 10:32:43;;;;;;;70.07;45.03;;;;;;;15.48;63.20;94952.75;5103820;28;20201;-83
2022/11/15 10:35:29;;;;;;;75.40;46.50;;;;;;;15.47;63.06;94946.81;5099570;28;20193;-76
2022/11/15 10:38:07;;;;;;;76.70;46.07;;;;;;;15.49;62.96;94937.13;5106920;28;20219;-85
2022/11/15 10:40:36;;;;;;;81.93;49.00;;;;;;;15.49;62.77;94926.00;5100633;28;20177;-82
2022/11/15 10:43:14;;;;;;;76.73;45.93;;;;;;;15.56;62.77;94930.38;5104083;28;20667;-78
2022/11/15 10:45:41;;;;;;;85.87;49.03;;;;;;;15.58;62.50;94930.19;5097596;28;20681;-86
2022/11/15 10:48:23;;;;;;;86.40;49.07;;;;;;;15.42;62.32;94902.69;5104149;28;20189;-87
2022/11/15 10:50:52;;;;;;;78.20;47.23;;;;;;;15.61;62.38;94922.13;5098140;28;20245;-86
2022/11/15 10:53:25;;;;;;;82.20;46.80;;;;;;;15.39;62.55;94884.16;5101873;28;20205;-84
2022/11/15 10:55:56;;;;;;;81.90;47.87;;;;;;;15.40;62.09;94881.41;5099622;28;20193;-85
2022/11/15 10:58:35;;;;;;;74.70;46.67;;;;;;;15.62;62.16;94904.91;5104913;28;20181;-81
2022/11/15 11:01:17;;;;;;;75.40;46.57;;;;;;;15.63;61.95;94903.91;5099149;28;20203;-83
2022/11/15 11:03:46;;;;;;;73.63;45.77;;;;;;;15.64;61.92;94900.41;5099824;28;20197;-81
2022/11/15 11:06:14;;;;;;;78.87;46.43;;;;;;;15.64;61.75;94888.34;5098363;28;20197;-80
2022/11/15 11:08:53;;;;;;;75.57;44.73;;;;;;;15.55;61.79;94874.63;5102771;28;20224;-77
2022/11/15 11:11:21;;;;;;;79.73;46.50;;;;;;;15.61;61.50;94880.88;5102793;28;20690;-80
2022/11/15 11:13:49;;;;;;;74.73;44.40;;;;;;;15.70;61.49;94884.28;5105047;28;20188;-79
2022/11/15 11:16:25;;;;;;;70.20;43.63;;;;;;;15.74;61.42;94885.56;5100364;28;20211;-81
2022/11/15 11:19:02;;;;;;;69.90;45.23;;;;;;;15.76;61.46;94875.91;5102577;28;20196;-84
2022/11/15 11:21:41;;;;;;;70.77;44.10;;;;;;;15.57;61.29;94844.31;5102928;28;20185;-81
2022/11/15 11:24:19;;;;;;;63.87;43.60;;;;;;;15.76;61.28;94868.19;5100845;28;20200;-79
2022/11/15 11:26:59;;;;;;;71.40;42.90;;;;;;;15.80;61.26;94865.09;5099488;28;20190;-81
2022/11/15 11:29:38;;;;;;;67.80;41.83;;;;;;;15.77;60.99;94846.56;5115211;28;20185;-83
2022/11/15 11:32:20;;;;;;;70.17;42.17;;;;;;;15.80;61.16;94851.38;5108557;28;20213;-77
2022/11/15 11:34:57;;;;;;;67.47;42.17;;;;;;;15.81;60.96;94845.28;5101865;28;20675;-79
2022/11/15 11:37:35;;;;;;;65.47;41.83;;;;;;;15.82;61.04;94835.75;5098738;28;20201;-79
2022/11/15 11:40:17;;;;;;;66.73;41.67;;;;;;;15.83;61.03;94829.63;5099428;28;20596;-79
2022/11/15 11:42:58;;;;;;;69.93;41.97;;;;;;;15.83;60.86;94837.38;5103223;28;20197;-79
2022/11/15 11:45:42;;;;;;;75.67;42.37;;;;;;;15.71;60.81;94813.69;5095607;28;20347;-79
2022/11/15 11:48:14;;;;;;;69.03;43.13;;;;;;;15.81;60.94;94829.81;5097222;28;20193;-86
2022/11/15 11:50:43;;;;;;;62.03;39.33;;;;;;;15.74;60.93;94809.03;5098045;28;20265;-80